< Typhoon 199803 1998 Season Typhoon 199805 >
Typhoon 199804 (REX)
General InformationTrack Information on Google MapsDetailed Wind InformationList of All Images || NewsDisaster Info.ResourceGoogle EarthGE AnimationAtom FeedGeoJSON
Detalied Best Track (Time Zone = UTC)
Year Month Day Hour Lat. Long. Pressure (hPa) Wind (kt) Class Image Chart
1998 8 24 00 20.5 129.7 1006 0 2 Image Chart
1998 8 24 06 21.2 129.8 1004 0 2 Image Chart
1998 8 24 12 22.4 130.6 1004 0 2 Image Chart
1998 8 24 18 23.5 131.6 1002 0 2 Image Chart
1998 8 25 00 24.3 132.4 996 35 3 Image Chart
1998 8 25 06 24.8 133.1 990 40 3 Image Chart
1998 8 25 12 25.1 133.6 985 45 3 Image Chart
1998 8 25 18 25.2 134.6 980 50 4 Image Chart
1998 8 26 00 25.2 135.2 975 60 4 Image Chart
1998 8 26 06 25.0 136.0 965 65 5 Image Chart
1998 8 26 12 24.6 136.9 960 70 5 Image Chart
1998 8 26 18 24.6 137.6 960 70 5 Image Chart
1998 8 27 00 24.7 138.3 960 70 5 Image Chart
1998 8 27 06 24.9 139.1 960 70 5 Image Chart
1998 8 27 12 25.3 139.7 960 70 5 Image Chart
1998 8 27 18 25.9 140.1 960 70 5 Image Chart
1998 8 28 00 26.5 140.5 960 70 5 Image Chart
1998 8 28 06 27.0 140.8 960 70 5 Image Chart
1998 8 28 09 27.2 140.9 960 70 5 Image Chart
1998 8 28 12 27.5 141.0 960 70 5 Image Chart
1998 8 28 15 27.7 141.0 960 70 5 Image Chart
1998 8 28 18 27.9 141.0 960 70 5 Image Chart
1998 8 28 21 28.1 141.0 960 70 5 Image Chart
1998 8 29 00 28.2 141.0 955 75 5 Image Chart
1998 8 29 03 28.3 141.0 955 75 5 Image Chart
1998 8 29 06 28.5 141.0 955 75 5 Image Chart
1998 8 29 09 28.7 141.0 955 75 5 Image Chart
1998 8 29 12 28.8 141.0 955 75 5 Image Chart
1998 8 29 15 29.0 141.0 955 75 5 Image Chart
1998 8 29 18 29.1 141.0 955 75 5 Image Chart
1998 8 29 21 29.2 141.0 955 75 5 Image Chart
1998 8 30 00 29.4 141.0 960 70 5 Image Chart
1998 8 30 03 29.8 141.1 960 70 5 Image Chart
1998 8 30 06 30.2 141.2 960 70 5 Image Chart
1998 8 30 09 30.4 141.4 960 70 5 Image Chart
1998 8 30 12 30.5 141.6 960 70 5 Image Chart
1998 8 30 15 30.6 141.9 960 70 5 Image Chart
1998 8 30 18 30.8 142.3 960 70 5 Image Chart
1998 8 30 21 31.0 142.7 960 70 5 Image Chart
1998 8 31 00 31.3 143.0 960 70 5 Image Chart
1998 8 31 06 31.6 144.1 960 70 5 Image Chart
1998 8 31 12 31.3 144.9 960 70 5 Image Chart
1998 8 31 18 30.7 145.7 960 70 5 Image Chart
1998 9 1 00 30.2 147.0 960 70 5 Image Chart
1998 9 1 06 29.8 148.1 960 70 5 Image Chart
1998 9 1 12 29.3 149.2 960 70 5 Image Chart
1998 9 1 18 28.9 150.2 965 65 5 Image Chart
1998 9 2 00 28.9 151.3 965 65 5 Image Chart
1998 9 2 06 29.3 152.3 965 65 5 Image Chart
1998 9 2 12 29.9 153.2 965 65 5 Image Chart
1998 9 2 18 30.5 153.7 965 65 5 Image Chart
1998 9 3 00 31.0 154.0 970 65 5 Image Chart
1998 9 3 06 31.3 154.3 970 65 5 Image Chart
1998 9 3 12 31.4 154.8 970 65 5 Image Chart
1998 9 3 18 31.5 155.4 970 65 5 Image Chart
1998 9 4 00 31.5 156.0 975 60 4 Image Chart
1998 9 4 06 31.5 156.7 975 60 4 Image Chart
1998 9 4 12 31.6 157.1 975 60 4 Image Chart
1998 9 4 18 31.8 157.4 975 60 4 Image Chart
1998 9 5 00 32.0 157.6 975 60 4 Image Chart
1998 9 5 06 32.8 158.0 975 60 4 Image Chart
1998 9 5 12 33.7 158.1 980 55 4 Image Chart
1998 9 5 18 34.2 158.4 980 55 4 Image Chart
1998 9 6 00 34.9 159.6 980 55 4 Image Chart
1998 9 6 06 36.5 161.0 980 55 4 Image Chart
1998 9 6 12 38.7 162.1 980 55 4 Image Chart
1998 9 6 18 42.6 163.0 980 55 4 Image Chart
1998 9 7 00 46.0 164.4 980 0 6 Image Chart
1998 9 7 06 48.5 166.0 980 0 6 Image Chart
1998 9 7 12 50.0 167.9 980 0 6 Image Chart
1998 9 7 18 50.6 169.6 980 0 6 Image Chart
1998 9 8 00 50.6 170.5 980 0 6 Image Chart
1998 9 8 06 50.6 173.2 980 0 6 Image Chart
1998 9 8 12 50.6 176.8 980 0 6 Image Chart
1998 9 8 18 50.6 180.8 980 0 6 Image Chart
Japan Meteorological Agency Best Track Data | Correction Date : 1999-01-11
< Typhoon 199803 1998 Season Typhoon 199805 >

Help